Time;durP1;ratioP1;P1;durP2;ratioP2;P2;SDS_P1;SDS_P2;PMS_P1;PMS_P2;Temp;Humidity;BMP_temperature;BMP_pressure;BME280_temperature;BME280_humidity;BME280_pressure;Samples;Min_cycle;Max_cycle;Signal;HPM_P1;HPM_P2
2023/09/02 00:01:00;;;;;;;3.20;2.30;;;19.90;99.30;;;;;;5005496;28;20410;-70
2023/09/02 00:03:26;;;;;;;3.00;2.50;;;20.00;99.30;;;;;;4987845;28;20497;-70
2023/09/02 00:05:52;;;;;;;2.63;2.47;;;20.00;99.30;;;;;;4987133;28;20439;-70
2023/09/02 00:08:19;;;;;;;2.30;2.20;;;19.90;99.20;;;;;;4967664;28;20440;-71
2023/09/02 00:10:45;;;;;;;2.70;2.50;;;19.90;99.20;;;;;;4982545;28;20444;-70
2023/09/02 00:13:13;;;;;;;3.00;2.80;;;19.90;99.30;;;;;;4982528;28;20426;-70
2023/09/02 00:15:42;;;;;;;3.03;2.47;;;19.90;99.30;;;;;;5003395;28;20877;-70
2023/09/02 00:18:07;;;;;;;2.93;2.73;;;19.90;99.20;;;;;;4986812;28;20486;-70
2023/09/02 00:20:37;;;;;;;2.70;2.50;;;20.00;99.60;;;;;;4954877;28;20419;-70
2023/09/02 00:23:05;;;;;;;2.63;2.40;;;19.90;99.20;;;;;;4987023;28;20458;-70
2023/09/02 00:25:31;;;;;;;3.37;2.53;;;19.90;99.30;;;;;;5004528;28;20550;-69
2023/09/02 00:28:02;;;;;;;2.60;2.40;;;19.90;99.30;;;;;;5003505;28;20436;-70
2023/09/02 00:30:28;;;;;;;2.67;2.47;;;19.90;99.30;;;;;;4983534;28;20982;-70
2023/09/02 00:32:56;;;;;;;3.37;2.47;;;19.90;99.30;;;;;;4972872;28;20904;-70
2023/09/02 00:35:23;;;;;;;3.13;2.33;;;19.90;99.30;;;;;;4985768;28;20505;-70
2023/09/02 00:37:51;;;;;;;2.70;2.50;;;19.80;99.20;;;;;;4969557;28;21326;-70
2023/09/02 00:40:19;;;;;;;2.70;2.50;;;19.90;99.30;;;;;;4969368;28;20493;-69
2023/09/02 00:42:46;;;;;;;2.60;2.40;;;19.90;99.30;;;;;;4969422;28;21150;-70
2023/09/02 00:45:15;;;;;;;2.80;2.60;;;19.90;99.30;;;;;;4985236;28;20795;-70
2023/09/02 00:47:44;;;;;;;3.33;2.40;;;19.90;99.30;;;;;;4991995;28;20504;-70
2023/09/02 00:50:12;;;;;;;2.30;2.10;;;19.90;99.30;;;;;;4966810;28;21122;-70
2023/09/02 00:52:38;;;;;;;2.80;2.30;;;19.90;99.30;;;;;;4982520;28;20439;-70
2023/09/02 00:55:05;;;;;;;2.40;2.23;;;19.90;99.30;;;;;;4986688;28;20466;-70
2023/09/02 00:57:35;;;;;;;2.60;2.40;;;19.90;99.30;;;;;;4966497;28;20554;-70
2023/09/02 01:00:09;;;;;;;3.30;2.63;;;19.80;99.40;;;;;;4950361;28;20428;-70
2023/09/02 01:02:37;;;;;;;2.53;2.37;;;19.90;99.40;;;;;;4953988;28;20485;-70
2023/09/02 01:05:03;;;;;;;2.50;2.30;;;19.90;99.40;;;;;;5002810;28;20405;-70
2023/09/02 01:07:30;;;;;;;2.50;2.27;;;19.90;99.40;;;;;;4982686;28;20581;-71
2023/09/02 01:09:57;;;;;;;2.20;2.00;;;19.90;99.40;;;;;;4971420;28;20537;-70
2023/09/02 01:12:28;;;;;;;3.00;2.80;;;19.90;99.30;;;;;;4986101;28;20419;-69
2023/09/02 01:14:57;;;;;;;3.30;2.73;;;19.80;99.30;;;;;;4985175;28;20947;-70
2023/09/02 01:17:25;;;;;;;2.70;2.50;;;19.90;99.30;;;;;;5001158;28;21228;-69
2023/09/02 01:19:56;;;;;;;2.40;2.20;;;19.80;99.20;;;;;;4985517;28;20418;-70
2023/09/02 01:22:41;;;;;;;2.57;2.37;;;19.90;99.30;;;;;;4987822;28;20553;-70
2023/09/02 01:25:14;;;;;;;2.70;2.50;;;20.00;99.30;;;;;;4973286;28;20442;-70
2023/09/02 01:27:48;;;;;;;2.60;2.40;;;19.80;99.20;;;;;;4988911;28;20462;-70
2023/09/02 01:30:21;;;;;;;2.87;2.67;;;19.80;99.20;;;;;;5006224;28;20433;-70
2023/09/02 01:32:56;;;;;;;3.40;2.70;;;19.80;99.20;;;;;;5005621;28;21496;-70
2023/09/02 01:35:27;;;;;;;3.00;2.70;;;19.80;99.20;;;;;;5005383;28;20489;-70
2023/09/02 01:37:55;;;;;;;2.10;2.00;;;19.80;99.30;;;;;;4987853;28;20455;-71
2023/09/02 01:40:26;;;;;;;3.80;2.53;;;19.80;99.20;;;;;;4987102;28;20425;-70
2023/09/02 01:42:59;;;;;;;2.47;2.27;;;19.80;99.20;;;;;;4987339;28;20429;-69
2023/09/02 01:45:33;;;;;;;2.63;2.43;;;19.80;99.20;;;;;;4971327;28;20476;-70
2023/09/02 01:48:00;;;;;;;2.43;2.27;;;19.80;99.30;;;;;;4987284;28;20447;-70
2023/09/02 01:50:30;;;;;;;2.27;2.17;;;19.80;99.20;;;;;;4987159;28;20435;-68
2023/09/02 01:52:57;;;;;;;2.83;2.50;;;19.80;99.20;;;;;;4971251;28;20438;-70
2023/09/02 01:55:26;;;;;;;2.53;2.33;;;19.80;99.20;;;;;;4986910;28;20506;-69
2023/09/02 01:57:58;;;;;;;2.60;2.40;;;19.80;99.20;;;;;;4967692;28;21242;-71
2023/09/02 02:00:24;;;;;;;2.73;2.53;;;19.80;99.20;;;;;;4971118;28;20446;-71
2023/09/02 02:02:53;;;;;;;2.70;2.47;;;19.80;99.20;;;;;;4973187;28;20490;-70
2023/09/02 02:05:28;;;;;;;2.33;2.23;;;19.80;99.20;;;;;;4987496;28;20434;-70
2023/09/02 02:08:03;;;;;;;2.30;2.10;;;19.80;99.20;;;;;;4987560;28;20461;-71
2023/09/02 02:10:35;;;;;;;2.80;2.60;;;19.80;99.30;;;;;;4987170;28;20421;-70
2023/09/02 02:13:02;;;;;;;2.50;2.40;;;19.80;99.30;;;;;;4971438;28;20437;-70
2023/09/02 02:15:29;;;;;;;2.33;2.13;;;19.80;99.20;;;;;;4986717;28;20483;-70
2023/09/02 02:17:54;;;;;;;4.20;2.47;;;19.80;99.30;;;;;;4970751;28;20453;-70
2023/09/02 02:20:21;;;;;;;2.90;2.10;;;19.80;99.30;;;;;;4970316;28;20431;-70
2023/09/02 02:22:49;;;;;;;2.60;2.40;;;19.70;99.20;;;;;;4987135;28;20250;-70
2023/09/02 02:25:20;;;;;;;2.30;2.07;;;19.80;99.30;;;;;;5004669;28;20421;-70
2023/09/02 02:27:46;;;;;;;2.00;1.90;;;19.80;99.30;;;;;;4970311;28;20462;-70
2023/09/02 02:30:14;;;;;;;2.63;2.43;;;19.80;99.20;;;;;;4986500;28;20423;-69
2023/09/02 02:32:43;;;;;;;2.80;2.33;;;19.70;99.20;;;;;;4963587;28;1104973;-70
2023/09/02 02:35:09;;;;;;;3.57;3.27;;;19.70;99.20;;;;;;4986831;28;20677;-70
2023/09/02 02:37:37;;;;;;;2.07;1.97;;;19.70;99.20;;;;;;4967892;28;20467;-70
2023/09/02 02:40:06;;;;;;;2.57;2.37;;;19.70;99.10;;;;;;4989495;28;20929;-68
2023/09/02 02:42:37;;;;;;;2.90;2.70;;;19.70;99.10;;;;;;4987261;28;20466;-71
2023/09/02 02:45:03;;;;;;;4.37;2.20;;;19.70;99.20;;;;;;4986747;28;20435;-70
2023/09/02 02:47:32;;;;;;;2.50;2.30;;;19.80;99.20;;;;;;4970900;28;20458;-70
2023/09/02 02:50:00;;;;;;;2.40;2.30;;;19.70;99.20;;;;;;4987142;28;20419;-70
2023/09/02 02:52:28;;;;;;;2.90;2.40;;;19.70;99.20;;;;;;5005015;28;20394;-71
2023/09/02 02:54:55;;;;;;;4.23;2.67;;;19.70;99.10;;;;;;4971104;28;20575;-70
2023/09/02 02:57:24;;;;;;;2.40;2.20;;;19.70;99.20;;;;;;4971576;28;20446;-70
2023/09/02 02:59:56;;;;;;;3.23;2.33;;;19.70;99.20;;;;;;4987268;28;20408;-69
2023/09/02 03:02:22;;;;;;;2.40;2.30;;;19.70;99.20;;;;;;4987159;28;20537;-68
2023/09/02 03:04:50;;;;;;;2.77;2.57;;;19.70;99.30;;;;;;5004671;28;21047;-70
2023/09/02 03:07:18;;;;;;;2.47;2.30;;;19.70;99.20;;;;;;4986757;28;21177;-70
2023/09/02 03:09:44;;;;;;;2.53;2.37;;;19.70;99.20;;;;;;4986938;28;20530;-70
2023/09/02 03:12:13;;;;;;;2.57;2.37;;;19.70;99.20;;;;;;4987606;28;20400;-70
2023/09/02 03:14:41;;;;;;;2.67;2.57;;;19.70;99.20;;;;;;4971191;28;20927;-70
2023/09/02 03:17:09;;;;;;;2.50;2.40;;;19.70;99.20;;;;;;4971318;28;20868;-71
2023/09/02 03:19:38;;;;;;;2.60;2.40;;;19.70;99.20;;;;;;5004614;28;20546;-69
2023/09/02 03:22:04;;;;;;;3.03;2.83;;;19.60;99.20;;;;;;5004744;28;20976;-68
2023/09/02 03:24:36;;;;;;;4.83;2.40;;;19.60;99.10;;;;;;4970961;28;20416;-70
2023/09/02 03:27:05;;;;;;;2.67;2.47;;;19.70;99.20;;;;;;4971316;28;20486;-70
2023/09/02 03:29:33;;;;;;;2.40;2.30;;;19.60;99.10;;;;;;4971322;28;20525;-70
2023/09/02 03:32:07;;;;;;;2.50;2.30;;;19.60;99.20;;;;;;4987510;28;20467;-70
2023/09/02 03:34:35;;;;;;;2.10;2.00;;;19.60;99.20;;;;;;4968539;28;20967;-70
2023/09/02 03:37:06;;;;;;;2.33;2.20;;;19.70;99.20;;;;;;4970103;28;20513;-70
2023/09/02 03:39:33;;;;;;;2.13;1.93;;;19.60;99.20;;;;;;4967105;28;20505;-70
2023/09/02 03:42:02;;;;;;;2.17;2.07;;;19.60;99.20;;;;;;4967572;28;20426;-70
2023/09/02 03:44:28;;;;;;;4.77;2.30;;;19.60;99.20;;;;;;4986604;28;20926;-70
2023/09/02 03:46:56;;;;;;;2.60;2.40;;;19.60;99.20;;;;;;4970607;28;20463;-70
2023/09/02 03:49:25;;;;;;;2.90;2.20;;;19.60;99.20;;;;;;4986730;28;20430;-71
2023/09/02 03:51:54;;;;;;;2.30;2.20;;;19.60;99.20;;;;;;4985725;28;20928;-69
2023/09/02 03:54:21;;;;;;;2.33;2.23;;;19.60;99.20;;;;;;4986611;28;20473;-70
2023/09/02 03:56:50;;;;;;;2.70;2.50;;;19.60;99.20;;;;;;4986433;28;20974;-69
2023/09/02 03:59:16;;;;;;;2.07;1.97;;;19.60;99.20;;;;;;5002652;28;20466;-70
2023/09/02 04:01:42;;;;;;;2.37;2.27;;;19.60;99.20;;;;;;4986041;28;20430;-70
2023/09/02 04:04:15;;;;;;;2.50;2.30;;;19.60;99.20;;;;;;5003654;28;21114;-70
2023/09/02 04:06:43;;;;;;;2.60;2.40;;;19.60;99.20;;;;;;4986122;28;20508;-70
2023/09/02 04:09:09;;;;;;;2.10;2.00;;;19.60;99.20;;;;;;5002676;28;20507;-70
2023/09/02 04:11:40;;;;;;;3.10;2.07;;;19.60;99.10;;;;;;4986206;28;20449;-70
2023/09/02 04:14:06;;;;;;;2.60;2.40;;;19.60;99.20;;;;;;4975067;28;20502;-70
2023/09/02 04:16:33;;;;;;;2.67;2.47;;;19.50;99.10;;;;;;4997298;28;20466;-70
2023/09/02 04:19:04;;;;;;;2.33;2.13;;;19.50;99.10;;;;;;4998489;28;20461;-70
2023/09/02 04:21:31;;;;;;;2.47;2.30;;;19.60;99.10;;;;;;4969326;28;20430;-70
2023/09/02 04:23:57;;;;;;;2.17;2.07;;;19.50;99.10;;;;;;4969339;28;20438;-71
2023/09/02 04:26:26;;;;;;;2.10;2.00;;;19.60;99.10;;;;;;4985840;28;20483;-70
2023/09/02 04:28:55;;;;;;;3.30;2.30;;;19.60;99.10;;;;;;4986236;28;20427;-69
2023/09/02 04:31:22;;;;;;;2.30;2.20;;;19.60;99.10;;;;;;4968970;28;20723;-70
2023/09/02 04:33:49;;;;;;;2.90;2.70;;;19.60;99.10;;;;;;4969735;28;20988;-70
2023/09/02 04:36:16;;;;;;;2.77;2.57;;;19.50;99.10;;;;;;4985448;28;20840;-70
2023/09/02 04:38:46;;;;;;;3.27;2.10;;;19.60;99.10;;;;;;4985190;28;20413;-70
2023/09/02 04:41:16;;;;;;;2.73;2.53;;;19.60;99.10;;;;;;4984829;28;20437;-70
2023/09/02 04:43:45;;;;;;;2.87;2.67;;;19.50;99.10;;;;;;4983101;28;20429;-70
2023/09/02 04:46:12;;;;;;;3.13;2.50;;;19.60;99.10;;;;;;4969668;28;20460;-69
2023/09/02 04:48:42;;;;;;;2.30;2.20;;;19.50;99.10;;;;;;4984864;28;20428;-71
2023/09/02 04:51:11;;;;;;;2.40;2.30;;;19.50;99.10;;;;;;4968924;28;20442;-70
2023/09/02 04:53:37;;;;;;;4.47;2.83;;;19.60;99.20;;;;;;4967340;28;20529;-70
2023/09/02 04:56:08;;;;;;;2.60;2.40;;;19.50;99.10;;;;;;4949012;28;20475;-72
2023/09/02 04:58:39;;;;;;;2.47;2.27;;;19.60;99.20;;;;;;4967881;28;20436;-70
2023/09/02 05:01:12;;;;;;;2.50;2.30;;;19.60;99.10;;;;;;4989146;28;20513;-71
2023/09/02 05:03:48;;;;;;;3.90;2.63;;;19.50;99.10;;;;;;4988919;28;20448;-71
2023/09/02 05:06:15;;;;;;;2.87;2.30;;;19.50;99.10;;;;;;5006812;28;20478;-72
2023/09/02 05:08:46;;;;;;;2.53;2.33;;;19.50;99.10;;;;;;4988031;28;20463;-70
2023/09/02 05:11:17;;;;;;;2.47;2.30;;;19.50;99.10;;;;;;4989021;28;20859;-70
2023/09/02 05:13:44;;;;;;;2.83;2.57;;;19.50;99.10;;;;;;4972185;28;21122;-72
2023/09/02 05:16:10;;;;;;;2.53;2.33;;;19.50;99.20;;;;;;4988646;28;20493;-72
2023/09/02 05:18:36;;;;;;;2.30;2.20;;;19.50;99.10;;;;;;4956616;28;20428;-70
2023/09/02 05:21:03;;;;;;;2.80;2.60;;;19.50;99.10;;;;;;4969789;28;20532;-71
2023/09/02 05:23:29;;;;;;;2.50;2.40;;;19.50;99.10;;;;;;4987293;28;20977;-70
2023/09/02 05:25:56;;;;;;;2.73;2.53;;;19.50;99.10;;;;;;4983704;28;21304;-68
2023/09/02 05:28:25;;;;;;;2.80;2.60;;;19.50;99.10;;;;;;4974970;28;20773;-71
2023/09/02 05:30:54;;;;;;;2.30;1.97;;;19.50;99.00;;;;;;4985502;28;20434;-71
2023/09/02 05:33:25;;;;;;;2.53;2.33;;;19.50;99.10;;;;;;4949472;28;20487;-70
2023/09/02 05:35:51;;;;;;;2.30;2.20;;;19.50;99.10;;;;;;4966497;28;20445;-70
2023/09/02 05:38:17;;;;;;;2.17;2.07;;;19.50;99.10;;;;;;4983080;28;20798;-70
2023/09/02 05:40:45;;;;;;;2.30;2.20;;;19.40;99.00;;;;;;4982154;28;20543;-70
2023/09/02 05:43:13;;;;;;;2.40;2.27;;;19.40;99.00;;;;;;4983792;28;20481;-70
2023/09/02 05:45:42;;;;;;;2.07;1.97;;;19.50;99.10;;;;;;4982807;28;20455;-71
2023/09/02 05:48:08;;;;;;;2.47;2.27;;;19.50;99.10;;;;;;5003063;28;21244;-69
2023/09/02 05:50:36;;;;;;;2.20;2.10;;;19.40;99.00;;;;;;4968048;28;20428;-71
2023/09/02 05:53:02;;;;;;;2.40;2.13;;;19.50;99.00;;;;;;4952922;28;20440;-68
2023/09/02 05:55:31;;;;;;;2.23;2.13;;;19.50;99.00;;;;;;4948702;28;20470;-70
2023/09/02 05:58:02;;;;;;;2.10;2.00;;;19.30;98.90;;;;;;4983783;28;20465;-71
2023/09/02 06:00:30;;;;;;;2.10;2.00;;;19.50;99.00;;;;;;5001774;28;20457;-70
2023/09/02 06:02:56;;;;;;;2.00;1.90;;;19.40;99.00;;;;;;4983308;28;20476;-70
2023/09/02 06:05:22;;;;;;;2.00;1.90;;;19.40;98.90;;;;;;4969200;28;20871;-71
2023/09/02 06:07:48;;;;;;;2.23;2.10;;;19.40;98.90;;;;;;4979523;28;20453;-70
2023/09/02 06:10:16;;;;;;;1.77;1.67;;;19.40;99.20;;;;;;4964363;28;20182;-71
2023/09/02 06:12:42;;;;;;;7.20;2.13;;;19.40;98.90;;;;;;4984958;28;20501;-71
2023/09/02 06:15:09;;;;;;;1.83;1.73;;;19.60;99.00;;;;;;5002738;28;20471;-71
2023/09/02 06:17:35;;;;;;;2.03;1.80;;;19.50;99.00;;;;;;5001498;28;20453;-71
2023/09/02 06:20:02;;;;;;;2.53;2.43;;;19.40;99.00;;;;;;4984506;28;20840;-71
2023/09/02 06:22:28;;;;;;;2.43;2.20;;;19.40;98.90;;;;;;4985299;28;20452;-70
2023/09/02 06:24:56;;;;;;;2.93;2.73;;;19.50;99.00;;;;;;4985570;28;20514;-71
2023/09/02 06:27:23;;;;;;;2.23;2.13;;;19.40;99.00;;;;;;5003234;28;20458;-70
2023/09/02 06:29:49;;;;;;;2.30;2.10;;;19.40;99.00;;;;;;4953042;28;21012;-69
2023/09/02 06:32:17;;;;;;;2.20;2.10;;;19.50;99.10;;;;;;4967999;28;20465;-70
2023/09/02 06:34:45;;;;;;;2.10;2.00;;;19.50;99.10;;;;;;4983337;28;20433;-69
2023/09/02 06:37:14;;;;;;;2.20;2.10;;;19.40;99.00;;;;;;4967825;28;20455;-68
2023/09/02 06:39:43;;;;;;;2.23;2.13;;;19.40;99.00;;;;;;4991747;28;20444;-69
2023/09/02 06:42:09;;;;;;;2.87;2.67;;;19.50;99.00;;;;;;4999840;28;21018;-67
2023/09/02 06:44:38;;;;;;;2.67;2.10;;;19.50;99.00;;;;;;4983486;28;20394;-69
2023/09/02 06:47:04;;;;;;;2.40;2.30;;;19.40;98.90;;;;;;5001374;28;20445;-69
2023/09/02 06:49:33;;;;;;;2.60;2.50;;;19.50;99.00;;;;;;5001785;28;20438;-70
2023/09/02 06:51:59;;;;;;;2.37;2.20;;;19.40;99.00;;;;;;4967886;28;20433;-68
2023/09/02 06:54:25;;;;;;;2.30;2.20;;;19.40;99.00;;;;;;4984541;28;20579;-69
2023/09/02 06:56:51;;;;;;;3.40;2.20;;;19.50;99.00;;;;;;4984145;28;20353;-70
2023/09/02 06:59:19;;;;;;;2.23;2.03;;;19.40;99.00;;;;;;5001336;28;20441;-70
2023/09/02 07:01:45;;;;;;;1.97;1.87;;;19.40;99.00;;;;;;4983960;28;21037;-68
2023/09/02 07:04:11;;;;;;;1.97;1.87;;;19.40;99.10;;;;;;4984612;28;20186;-70
2023/09/02 07:06:37;;;;;;;2.40;2.30;;;19.40;99.20;;;;;;4957838;28;20463;-69
2023/09/02 07:09:06;;;;;;;2.10;2.00;;;19.50;99.40;;;;;;4973962;28;20470;-69
2023/09/02 07:11:36;;;;;;;2.83;2.63;;;19.40;99.40;;;;;;4984008;28;20551;-69
2023/09/02 07:14:02;;;;;;;2.33;2.23;;;19.50;99.30;;;;;;5000373;28;20431;-68
2023/09/02 07:16:31;;;;;;;2.10;2.00;;;19.50;99.30;;;;;;4983840;28;20478;-69
2023/09/02 07:18:58;;;;;;;2.00;1.90;;;19.40;99.20;;;;;;4983945;28;21030;-70
2023/09/02 07:21:24;;;;;;;1.80;1.70;;;19.40;99.10;;;;;;4975434;28;21154;-68
2023/09/02 07:23:53;;;;;;;2.60;2.27;;;19.40;99.10;;;;;;4953613;28;20434;-68
2023/09/02 07:26:19;;;;;;;2.20;2.10;;;19.40;99.10;;;;;;4982676;28;20512;-69
2023/09/02 07:28:47;;;;;;;2.83;2.63;;;19.40;99.10;;;;;;4983605;28;20835;-70
2023/09/02 07:31:16;;;;;;;1.97;1.87;;;19.50;99.30;;;;;;4979880;28;20455;-69
2023/09/02 07:33:42;;;;;;;2.10;1.90;;;19.50;99.40;;;;;;4935924;28;20464;-70
2023/09/02 07:36:13;;;;;;;2.17;2.07;;;19.50;99.30;;;;;;4966769;28;20476;-70
2023/09/02 07:38:40;;;;;;;2.10;2.00;;;19.40;99.30;;;;;;4983618;28;21365;-69
2023/09/02 07:41:09;;;;;;;2.10;2.00;;;19.40;99.30;;;;;;5000689;28;20933;-68
2023/09/02 07:43:38;;;;;;;2.90;2.70;;;19.50;99.60;;;;;;4999941;28;20436;-71
2023/09/02 07:46:06;;;;;;;2.60;2.50;;;19.40;99.60;;;;;;4985468;28;20477;-69
2023/09/02 07:48:35;;;;;;;2.30;2.20;;;19.40;99.60;;;;;;4999542;28;20419;-69
2023/09/02 07:51:04;;;;;;;2.50;2.30;;;19.50;99.70;;;;;;5006148;28;20437;-67
2023/09/02 07:53:32;;;;;;;2.20;2.10;;;19.40;99.70;;;;;;4982952;28;20563;-69
2023/09/02 07:55:58;;;;;;;2.33;2.13;;;19.40;99.70;;;;;;4982455;28;20480;-68
2023/09/02 07:58:26;;;;;;;2.30;2.20;;;19.40;99.80;;;;;;4988593;28;20426;-68
2023/09/02 08:00:58;;;;;;;2.17;2.07;;;19.50;99.70;;;;;;4993762;28;20482;-69
2023/09/02 08:03:24;;;;;;;2.17;2.07;;;19.40;99.50;;;;;;4971289;28;20438;-69
2023/09/02 08:05:50;;;;;;;2.17;2.07;;;19.40;99.60;;;;;;4963452;28;20418;-69
2023/09/02 08:08:16;;;;;;;2.20;2.10;;;19.40;99.60;;;;;;4998018;28;21177;-69
2023/09/02 08:10:42;;;;;;;2.17;1.97;;;19.40;99.50;;;;;;5000064;28;20420;-69
2023/09/02 08:13:11;;;;;;;3.00;2.37;;;19.40;99.60;;;;;;4979666;28;20222;-69
2023/09/02 08:15:44;;;;;;;2.60;2.20;;;19.40;99.60;;;;;;4985745;28;20538;-69
2023/09/02 08:18:10;;;;;;;2.53;2.33;;;19.40;99.60;;;;;;4999691;28;20421;-68
2023/09/02 08:20:41;;;;;;;2.70;2.50;;;19.50;99.70;;;;;;4998696;28;20442;-69
2023/09/02 08:23:07;;;;;;;2.40;2.30;;;19.40;99.70;;;;;;4969370;28;21017;-70
2023/09/02 08:25:36;;;;;;;2.70;2.50;;;19.50;99.80;;;;;;4980693;28;20473;-69
2023/09/02 08:28:04;;;;;;;2.20;2.10;;;19.50;99.90;;;;;;4994566;28;20454;-68
2023/09/02 08:30:35;;;;;;;2.50;2.40;;;19.50;99.90;;;;;;4969929;28;21032;-69
2023/09/02 08:33:08;;;;;;;2.20;2.10;;;19.50;99.90;;;;;;4999008;28;20451;-69
2023/09/02 08:35:38;;;;;;;2.50;2.30;;;19.50;99.90;;;;;;4981948;28;21404;-69
2023/09/02 08:38:04;;;;;;;2.90;2.70;;;19.50;99.90;;;;;;4980689;28;20442;-68
2023/09/02 08:40:31;;;;;;;2.40;2.30;;;19.50;99.90;;;;;;4999381;28;20429;-69
2023/09/02 08:43:04;;;;;;;2.50;2.40;;;19.50;99.90;;;;;;4993557;28;20442;-68
2023/09/02 08:45:36;;;;;;;2.63;2.30;;;19.50;99.90;;;;;;4984612;28;21377;-69
2023/09/02 08:48:08;;;;;;;2.30;2.20;;;19.60;99.90;;;;;;4998548;28;20425;-69
2023/09/02 08:50:35;;;;;;;2.30;2.10;;;19.60;99.90;;;;;;4994375;28;20858;-68
2023/09/02 08:53:04;;;;;;;2.30;2.20;;;19.60;99.90;;;;;;4987423;28;20423;-69
2023/09/02 08:55:34;;;;;;;2.80;2.60;;;19.60;99.90;;;;;;4969759;28;20480;-69
2023/09/02 08:58:01;;;;;;;2.50;2.30;;;19.60;99.90;;;;;;4983019;28;20457;-68
2023/09/02 09:00:30;;;;;;;2.63;2.43;;;19.60;99.90;;;;;;4997755;28;20565;-71
2023/09/02 09:02:58;;;;;;;2.33;2.23;;;19.60;99.90;;;;;;4984118;28;20877;-71
2023/09/02 09:05:27;;;;;;;2.13;2.03;;;19.60;99.90;;;;;;4983568;28;20437;-69
2023/09/02 09:07:57;;;;;;;2.50;2.30;;;19.60;99.90;;;;;;4983681;28;20996;-68
2023/09/02 09:10:25;;;;;;;2.67;2.47;;;19.60;99.90;;;;;;4978815;28;20487;-69
2023/09/02 09:12:57;;;;;;;2.23;2.10;;;19.70;99.90;;;;;;4985530;28;20527;-71
2023/09/02 09:15:25;;;;;;;2.30;2.20;;;19.70;99.90;;;;;;4983245;28;20474;-73
2023/09/02 09:17:52;;;;;;;2.57;2.37;;;19.70;99.90;;;;;;4984107;28;20451;-72
2023/09/02 09:20:18;;;;;;;2.90;2.70;;;19.70;99.90;;;;;;5000371;28;20537;-69
2023/09/02 09:22:44;;;;;;;3.10;2.80;;;19.70;99.90;;;;;;4983995;28;20431;-71
2023/09/02 09:25:11;;;;;;;2.53;2.40;;;19.80;99.90;;;;;;4984483;28;20478;-70
2023/09/02 09:27:39;;;;;;;2.63;2.43;;;19.80;99.90;;;;;;4968852;28;20992;-74
2023/09/02 09:30:06;;;;;;;2.97;2.77;;;19.80;99.90;;;;;;5001978;28;20433;-74
2023/09/02 09:32:38;;;;;;;2.90;2.70;;;19.90;99.90;;;;;;4966723;28;20478;-73
2023/09/02 09:35:21;;;;;;;2.40;2.30;;;19.90;99.90;;;;;;4984102;28;20422;-70
2023/09/02 09:37:53;;;;;;;2.50;2.30;;;19.80;99.90;;;;;;4980037;28;20460;-68
2023/09/02 09:40:34;;;;;;;2.60;2.40;;;19.90;99.90;;;;;;4979195;28;20436;-71
2023/09/02 09:43:23;;;;;;;2.43;2.27;;;20.00;99.90;;;;;;4987357;28;20575;-69
2023/09/02 09:45:50;;;;;;;2.60;2.40;;;19.90;99.90;;;;;;4988829;28;20585;-71
2023/09/02 09:48:17;;;;;;;2.60;2.40;;;19.90;99.90;;;;;;5005275;28;20520;-69
2023/09/02 09:50:42;;;;;;;2.30;2.10;;;20.00;99.90;;;;;;5003560;28;20517;-67
2023/09/02 09:53:13;;;;;;;2.50;2.40;;;20.00;99.90;;;;;;5004699;28;20431;-69
2023/09/02 09:55:39;;;;;;;2.57;2.37;;;20.00;99.90;;;;;;5066770;22;21670;-75
2023/09/02 09:58:05;;;;;;;2.70;2.50;;;20.00;99.90;;;;;;5023524;28;20433;-76
2023/09/02 10:00:32;;;;;;;2.30;2.20;;;20.00;99.90;;;;;;4995159;28;20418;-75
2023/09/02 10:03:00;;;;;;;2.30;2.20;;;20.00;99.90;;;;;;5046403;28;20178;-77
2023/09/02 10:05:31;;;;;;;2.50;2.30;;;20.10;99.90;;;;;;5046978;28;20424;-76
2023/09/02 10:08:04;;;;;;;2.53;2.33;;;20.10;99.90;;;;;;4996008;28;20887;-76
2023/09/02 10:10:35;;;;;;;2.30;2.10;;;20.10;99.90;;;;;;5004927;28;20432;-75
2023/09/02 10:13:07;;;;;;;4.10;2.40;;;20.10;99.90;;;;;;5026204;28;20457;-74
2023/09/02 10:15:36;;;;;;;2.90;2.70;;;20.10;99.90;;;;;;5016309;28;20879;-75
2023/09/02 10:18:06;;;;;;;2.77;2.67;;;20.10;99.90;;;;;;5051272;28;20537;-75
2023/09/02 10:20:35;;;;;;;2.20;2.10;;;20.20;99.90;;;;;;4996113;28;20425;-77
2023/09/02 10:23:06;;;;;;;2.70;2.50;;;20.20;99.90;;;;;;5018314;28;20442;-75
2023/09/02 10:25:53;;;;;;;2.57;2.47;;;20.20;99.90;;;;;;5026855;28;20473;-76
2023/09/02 10:28:37;;;;;;;2.50;2.40;;;20.20;99.90;;;;;;5014106;28;20513;-75
2023/09/02 10:31:12;;;;;;;2.70;2.50;;;20.20;99.90;;;;;;5026595;28;20497;-76
2023/09/02 10:34:07;;;;;;;2.53;2.40;;;20.20;99.90;;;;;;5007720;28;20425;-77
2023/09/02 10:36:41;;;;;;;2.40;2.30;;;20.20;99.90;;;;;;4998422;28;20483;-78
2023/09/02 10:39:16;;;;;;;2.70;2.50;;;20.30;99.90;;;;;;5019172;28;20425;-76
2023/09/02 10:41:44;;;;;;;2.73;2.53;;;20.30;99.90;;;;;;5026881;28;20403;-78
2023/09/02 10:44:11;;;;;;;2.87;2.67;;;20.40;99.90;;;;;;4994968;28;20435;-78
2023/09/02 10:46:41;;;;;;;2.70;2.50;;;20.30;99.90;;;;;;4990775;28;20532;-77
2023/09/02 10:49:10;;;;;;;2.60;2.40;;;20.40;99.90;;;;;;5041329;28;20488;-77
2023/09/02 10:51:40;;;;;;;2.63;2.43;;;20.40;99.90;;;;;;5003523;28;20451;-77
2023/09/02 10:54:06;;;;;;;2.67;2.50;;;20.40;99.90;;;;;;5005808;28;20419;-72
2023/09/02 10:56:36;;;;;;;2.50;2.30;;;20.40;99.90;;;;;;5006454;28;20473;-74
2023/09/02 10:59:04;;;;;;;3.50;2.40;;;20.40;99.90;;;;;;4995706;28;20426;-74
2023/09/02 11:01:48;;;;;;;2.90;2.40;;;20.50;99.90;;;;;;4990513;28;20432;-73
2023/09/02 11:04:34;;;;;;;2.57;2.47;;;20.60;99.90;;;;;;5013368;28;20441;-74
2023/09/02 11:07:24;;;;;;;2.40;2.30;;;20.50;99.90;;;;;;5036245;28;20457;-72
2023/09/02 11:10:00;;;;;;;2.90;2.70;;;20.60;99.90;;;;;;5024993;28;20434;-73
2023/09/02 11:12:27;;;;;;;3.00;2.80;;;20.60;99.90;;;;;;5024326;28;20501;-73
2023/09/02 11:15:08;;;;;;;3.50;3.30;;;20.60;99.90;;;;;;5002616;28;20426;-73
2023/09/02 11:17:37;;;;;;;2.93;2.63;;;20.70;99.90;;;;;;5014472;28;20462;-74
2023/09/02 11:20:10;;;;;;;4.70;2.93;;;20.70;99.90;;;;;;5011740;28;20480;-73
2023/09/02 11:23:02;;;;;;;3.00;2.80;;;20.70;99.90;;;;;;5042797;28;20418;-74
2023/09/02 11:25:44;;;;;;;3.50;3.00;;;20.80;99.90;;;;;;5046990;23;20501;-73
2023/09/02 11:28:19;;;;;;;3.33;2.70;;;20.80;99.90;;;;;;4966242;28;20970;-72
2023/09/02 11:31:04;;;;;;;3.60;3.10;;;20.80;99.90;;;;;;4987362;28;20448;-73
2023/09/02 11:33:30;;;;;;;3.03;2.53;;;20.90;99.90;;;;;;4983093;28;21152;-71
2023/09/02 11:36:24;;;;;;;4.53;3.10;;;20.90;99.90;;;;;;4974126;28;20483;-74
2023/09/02 11:38:55;;;;;;;3.20;2.87;;;21.00;99.90;;;;;;4981049;28;20469;-70
2023/09/02 11:41:22;;;;;;;2.73;2.50;;;20.90;99.90;;;;;;4982386;28;20424;-70
2023/09/02 11:43:50;;;;;;;3.07;2.80;;;21.00;99.90;;;;;;4983394;28;20474;-71
2023/09/02 11:46:16;;;;;;;2.80;2.60;;;21.00;99.90;;;;;;4995691;28;20833;-71
2023/09/02 11:48:42;;;;;;;4.67;2.80;;;21.00;99.90;;;;;;4984561;28;20435;-70
2023/09/02 11:51:11;;;;;;;2.93;2.63;;;21.00;99.90;;;;;;4985104;28;20518;-71
2023/09/02 11:53:41;;;;;;;3.40;3.10;;;21.10;99.90;;;;;;5001813;28;20463;-71
2023/09/02 11:56:10;;;;;;;2.80;2.60;;;21.10;99.90;;;;;;5002474;28;20617;-70
2023/09/02 11:58:38;;;;;;;3.13;2.80;;;21.20;99.90;;;;;;4972315;28;20425;-71
2023/09/02 12:01:14;;;;;;;3.97;3.57;;;21.20;99.90;;;;;;4984787;28;20424;-71
2023/09/02 12:03:46;;;;;;;3.20;3.00;;;21.20;99.90;;;;;;4985704;28;20415;-71
2023/09/02 12:06:13;;;;;;;2.80;2.60;;;21.20;99.90;;;;;;4983516;28;20884;-71
2023/09/02 12:08:42;;;;;;;3.13;2.93;;;21.20;99.90;;;;;;4983258;28;20546;-71
2023/09/02 12:11:11;;;;;;;3.83;2.97;;;21.30;99.90;;;;;;4965514;28;21004;-72
2023/09/02 12:13:37;;;;;;;3.43;2.70;;;21.30;99.90;;;;;;4965453;28;20501;-71
2023/09/02 12:16:06;;;;;;;4.70;2.73;;;21.30;99.90;;;;;;4966049;28;20504;-71
2023/09/02 12:18:32;;;;;;;3.03;2.70;;;21.30;99.90;;;;;;4982046;28;20434;-72
2023/09/02 12:21:01;;;;;;;3.10;2.90;;;21.40;99.90;;;;;;4991586;28;20457;-71
2023/09/02 12:23:27;;;;;;;2.90;2.70;;;21.30;99.90;;;;;;5002708;28;21056;-71
2023/09/02 12:26:04;;;;;;;2.90;2.70;;;21.30;99.90;;;;;;4984742;28;20545;-72
2023/09/02 12:28:31;;;;;;;2.90;2.70;;;21.40;99.90;;;;;;4989828;28;20552;-71
2023/09/02 12:30:57;;;;;;;3.13;2.83;;;21.40;99.90;;;;;;4983448;28;20458;-72
2023/09/02 12:33:26;;;;;;;3.60;3.30;;;21.40;99.90;;;;;;4949481;28;20488;-71
2023/09/02 12:35:52;;;;;;;3.57;3.27;;;21.60;99.90;;;;;;4965717;28;20503;-72
2023/09/02 12:38:23;;;;;;;3.27;2.97;;;21.50;99.90;;;;;;4983698;28;20417;-72
2023/09/02 12:40:59;;;;;;;4.07;3.13;;;21.50;99.90;;;;;;4965399;28;21000;-72
2023/09/02 12:43:32;;;;;;;3.60;3.30;;;21.60;99.90;;;;;;4983435;28;20459;-72
2023/09/02 12:45:59;;;;;;;3.77;3.23;;;21.60;99.90;;;;;;4982071;28;20440;-72
2023/09/02 12:48:25;;;;;;;3.70;3.40;;;21.60;99.90;;;;;;4977768;28;20429;-72
2023/09/02 12:50:53;;;;;;;4.13;3.83;;;21.60;99.90;;;;;;4985425;28;21039;-71
2023/09/02 12:53:20;;;;;;;3.93;3.63;;;21.60;99.90;;;;;;5000997;28;20487;-71
2023/09/02 12:55:47;;;;;;;4.03;3.63;;;21.60;99.90;;;;;;4984720;28;20459;-71
2023/09/02 12:58:15;;;;;;;4.33;3.93;;;21.70;99.90;;;;;;4992686;28;20441;-71